Time;durP1;ratioP1;P1;durP2;ratioP2;P2;SDS_P1;SDS_P2;PMS_P1;PMS_P2;Temp;Humidity;BMP_temperature;BMP_pressure;BME280_temperature;BME280_humidity;BME280_pressure;Samples;Min_cycle;Max_cycle;Signal;HPM_P1;HPM_P2
2022/05/20 00:01:01;;;;;;;6.68;2.22;;;26.30;44.80;;;;;;7369193;19;20027;-75
2022/05/20 00:03:31;;;;;;;4.40;1.88;;;26.20;44.70;;;;;;7372950;19;20018;-75
2022/05/20 00:06:00;;;;;;;5.25;1.65;;;26.10;44.70;;;;;;7397448;19;20434;-75
2022/05/20 00:08:29;;;;;;;5.28;1.85;;;26.10;44.90;;;;;;7373161;19;20073;-75
2022/05/20 00:11:00;;;;;;;7.15;1.75;;;26.10;45.00;;;;;;7371698;19;20089;-75
2022/05/20 00:13:30;;;;;;;6.65;2.10;;;26.10;45.00;;;;;;7371052;19;20212;-75
2022/05/20 00:15:59;;;;;;;5.38;1.80;;;26.00;45.00;;;;;;7373844;19;20049;-75
2022/05/20 00:18:28;;;;;;;7.00;2.00;;;26.00;45.10;;;;;;7370960;19;20104;-75
2022/05/20 00:20:59;;;;;;;5.88;1.98;;;26.00;45.10;;;;;;7390303;19;20030;-74
2022/05/20 00:23:28;;;;;;;7.07;2.10;;;26.00;45.20;;;;;;7373026;19;20077;-74
2022/05/20 00:25:57;;;;;;;6.82;2.05;;;26.00;45.20;;;;;;7371486;19;20037;-74
2022/05/20 00:28:30;;;;;;;4.65;1.83;;;26.00;45.10;;;;;;7373209;19;20040;-74
2022/05/20 00:31:03;;;;;;;4.82;1.80;;;26.00;45.20;;;;;;7374194;19;20086;-74
2022/05/20 00:33:32;;;;;;;3.75;1.67;;;26.00;45.20;;;;;;7370157;19;20014;-75
2022/05/20 00:36:01;;;;;;;8.38;1.50;;;26.00;45.30;;;;;;7391128;19;20093;-74
2022/05/20 00:38:29;;;;;;;5.35;1.95;;;26.00;45.40;;;;;;7372861;19;20014;-75
2022/05/20 00:41:02;;;;;;;5.38;1.70;;;25.90;45.30;;;;;;7371462;19;20018;-74
2022/05/20 00:43:44;;;;;;;4.45;1.90;;;25.80;45.40;;;;;;7370961;19;20011;-75
2022/05/20 00:46:13;;;;;;;;;;;25.80;45.40;;;;;;7370719;19;20759;-74
2022/05/20 00:48:42;;;;;;;4.97;1.63;;;25.80;45.40;;;;;;7364435;19;20574;-74
2022/05/20 00:51:17;;;;;;;4.20;1.50;;;25.80;45.40;;;;;;7367292;19;20022;-74
2022/05/20 00:53:52;;;;;;;7.32;2.10;;;25.80;45.40;;;;;;7385345;19;20791;-74
2022/05/20 00:56:25;;;;;;;8.27;1.77;;;25.70;46.00;;;;;;7364724;19;20090;-75
2022/05/20 00:59:01;;;;;;;5.63;1.77;;;25.80;45.60;;;;;;7364250;19;20633;-75
2022/05/20 01:01:30;;;;;;;4.68;2.03;;;25.70;46.20;;;;;;7365498;19;20014;-75
2022/05/20 01:03:59;;;;;;;5.97;1.95;;;25.80;45.60;;;;;;7372832;19;20007;-75
2022/05/20 01:06:29;;;;;;;4.65;1.90;;;25.80;45.40;;;;;;7367256;19;20454;-75
2022/05/20 01:08:58;;;;;;;6.13;2.33;;;25.80;45.40;;;;;;7388968;19;20219;-75
2022/05/20 01:11:28;;;;;;;5.72;1.45;;;25.80;45.60;;;;;;7370084;19;20048;-75
2022/05/20 01:14:00;;;;;;;7.20;1.58;;;25.80;45.70;;;;;;7372212;19;20078;-75
2022/05/20 01:16:28;;;;;;;4.45;2.00;;;25.80;45.60;;;;;;7370007;19;20086;-75
2022/05/20 01:18:58;;;;;;;3.65;1.35;;;25.80;45.50;;;;;;7369185;19;20089;-75
2022/05/20 01:21:26;;;;;;;5.35;1.45;;;25.70;45.40;;;;;;7368269;19;20014;-75
2022/05/20 01:24:02;;;;;;;3.80;1.60;;;25.70;45.40;;;;;;7393316;19;20082;-75
2022/05/20 01:26:30;;;;;;;2.83;1.23;;;25.60;45.40;;;;;;7369295;19;20511;-75
2022/05/20 01:28:59;;;;;;;4.80;1.58;;;25.60;46.00;;;;;;7371142;19;20074;-75
2022/05/20 01:31:28;;;;;;;3.88;1.70;;;25.60;45.40;;;;;;7367558;19;20082;-75
2022/05/20 01:33:56;;;;;;;5.82;1.80;;;25.60;45.40;;;;;;7372229;19;20014;-76
2022/05/20 01:36:27;;;;;;;5.43;1.75;;;25.60;45.90;;;;;;7368985;19;20155;-75
2022/05/20 01:39:00;;;;;;;3.83;1.50;;;25.50;46.10;;;;;;7392915;19;20105;-75
2022/05/20 01:41:35;;;;;;;8.20;1.90;;;25.50;46.30;;;;;;7365739;19;20418;-75
2022/05/20 01:44:11;;;;;;;5.38;1.65;;;25.40;46.50;;;;;;7370793;19;20421;-75
2022/05/20 01:46:44;;;;;;;5.10;1.58;;;25.30;46.50;;;;;;7367549;19;20082;-75
2022/05/20 01:49:24;;;;;;;4.40;1.50;;;25.30;46.80;;;;;;7370756;19;20095;-75
2022/05/20 01:51:58;;;;;;;4.10;1.23;;;25.20;46.80;;;;;;7364773;19;20133;-75
2022/05/20 01:54:35;;;;;;;5.70;1.75;;;25.10;46.90;;;;;;7367215;19;20024;-75
2022/05/20 01:57:10;;;;;;;6.72;1.73;;;25.10;47.00;;;;;;7372974;19;20641;-75
2022/05/20 01:59:44;;;;;;;4.13;1.50;;;25.10;46.80;;;;;;7387970;19;20532;-75
2022/05/20 02:02:24;;;;;;;5.30;1.48;;;25.10;47.10;;;;;;7369953;19;20018;-75
2022/05/20 02:04:57;;;;;;;5.07;1.67;;;25.10;47.00;;;;;;7370215;19;20039;-75
2022/05/20 02:07:30;;;;;;;5.35;1.60;;;25.00;46.80;;;;;;7371101;19;20026;-75
2022/05/20 02:10:06;;;;;;;2.05;1.35;;;24.90;47.10;;;;;;7368289;19;20044;-75
2022/05/20 02:12:41;;;;;;;4.22;1.70;;;24.90;47.30;;;;;;7370909;19;20067;-75
2022/05/20 02:15:19;;;;;;;3.55;1.17;;;24.90;47.30;;;;;;7369338;19;20011;-75
2022/05/20 02:17:54;;;;;;;4.50;1.60;;;24.90;47.30;;;;;;7389519;19;20029;-75
2022/05/20 02:20:28;;;;;;;2.70;1.60;;;24.90;47.30;;;;;;7368352;19;20425;-75
2022/05/20 02:23:03;;;;;;;4.68;1.50;;;24.90;47.30;;;;;;7370239;19;20096;-75
2022/05/20 02:25:38;;;;;;;4.57;1.48;;;24.90;47.20;;;;;;7368937;19;20035;-75
2022/05/20 02:28:15;;;;;;;4.82;1.92;;;24.90;47.00;;;;;;7368812;19;20022;-75
2022/05/20 02:30:46;;;;;;;6.05;1.85;;;24.90;46.90;;;;;;7368980;19;20397;-75
2022/05/20 02:33:17;;;;;;;3.17;1.63;;;24.80;47.00;;;;;;7367553;19;20031;-76
2022/05/20 02:35:46;;;;;;;8.68;1.48;;;24.80;47.00;;;;;;7391220;19;20055;-75
2022/05/20 02:38:17;;;;;;;3.72;1.58;;;24.80;47.30;;;;;;7367939;19;20432;-75
2022/05/20 02:40:51;;;;;;;4.25;1.60;;;24.70;47.90;;;;;;7369171;19;20487;-75
2022/05/20 02:43:20;;;;;;;5.22;1.92;;;24.70;48.10;;;;;;7367800;19;20114;-76
2022/05/20 02:45:51;;;;;;;3.67;1.40;;;24.80;48.00;;;;;;7369866;19;20011;-76
2022/05/20 02:48:22;;;;;;;6.50;1.67;;;24.70;47.30;;;;;;7367879;19;20546;-75
2022/05/20 02:50:52;;;;;;;6.13;1.95;;;24.70;47.60;;;;;;7390745;19;20039;-75
2022/05/20 02:53:21;;;;;;;6.60;1.70;;;24.60;47.60;;;;;;7366948;19;20018;-75
2022/05/20 02:55:53;;;;;;;6.93;1.63;;;24.60;48.10;;;;;;7365739;19;20011;-75
2022/05/20 03:06:31;;;;;;;2.25;1.45;;;24.50;49.00;;;;;;7365501;19;20014;-74
2022/05/20 03:08:59;;;;;;;5.47;1.90;;;24.50;48.50;;;;;;7386919;19;20127;-74
2022/05/20 03:11:31;;;;;;;6.10;1.50;;;24.50;48.30;;;;;;7364433;19;20078;-74
2022/05/20 03:13:59;;;;;;;;;;;24.50;48.90;;;;;;7366019;19;20022;-75
2022/05/20 03:16:28;;;;;;;2.88;1.80;;;24.60;48.90;;;;;;7365263;19;19911;-74
2022/05/20 03:18:56;;;;;;;6.00;1.67;;;24.60;48.80;;;;;;7362807;19;20010;-75
2022/05/20 03:21:25;;;;;;;5.68;1.73;;;24.50;49.00;;;;;;7365848;19;20029;-75
2022/05/20 03:23:54;;;;;;;4.07;1.40;;;24.50;49.20;;;;;;7384808;19;20101;-75
2022/05/20 03:26:23;;;;;;;4.55;1.60;;;24.40;49.10;;;;;;7365883;19;20014;-75
2022/05/20 03:28:55;;;;;;;3.13;1.30;;;24.40;48.80;;;;;;7362428;19;20011;-75
2022/05/20 03:31:23;;;;;;;;;;;24.40;48.70;;;;;;7365997;19;20018;-75
2022/05/20 03:33:52;;;;;;;4.75;1.60;;;24.40;48.60;;;;;;7366501;19;20353;-75
2022/05/20 03:36:21;;;;;;;4.53;1.70;;;24.40;48.60;;;;;;7362535;19;20022;-75
2022/05/20 03:38:50;;;;;;;3.25;1.45;;;24.40;48.60;;;;;;7388452;19;20030;-75
2022/05/20 03:41:19;;;;;;;5.07;1.58;;;24.30;48.50;;;;;;7367585;19;20011;-75
2022/05/20 03:43:47;;;;;;;3.67;1.67;;;24.30;48.20;;;;;;7365137;19;20122;-75
2022/05/20 03:46:19;;;;;;;6.05;1.70;;;24.20;48.50;;;;;;7365952;19;20040;-74
2022/05/20 03:48:47;;;;;;;;;;;24.20;49.50;;;;;;7366080;19;20124;-75
2022/05/20 03:51:17;;;;;;;3.33;1.80;;;24.20;49.20;;;;;;7364262;19;19967;-75
2022/05/20 03:53:46;;;;;;;3.25;1.92;;;24.10;49.20;;;;;;7386293;19;20015;-75
2022/05/20 03:56:15;;;;;;;4.25;1.67;;;24.10;49.10;;;;;;7373358;19;20093;-75
2022/05/20 03:58:43;;;;;;;5.13;2.00;;;24.10;49.10;;;;;;7374427;19;20351;-75
2022/05/20 04:03:58;;;;;;;3.88;1.65;;;24.10;49.50;;;;;;7374213;19;20035;-75
2022/05/20 04:06:27;;;;;;;6.70;1.67;;;24.10;49.30;;;;;;7374147;19;20114;-75
2022/05/20 04:08:56;;;;;;;4.18;1.67;;;24.00;49.30;;;;;;7392821;19;20082;-74
2022/05/20 04:11:25;;;;;;;5.75;1.73;;;24.00;49.30;;;;;;7373160;19;20007;-74
2022/05/20 04:13:54;;;;;;;8.48;2.42;;;24.00;49.40;;;;;;7373180;19;20015;-74
2022/05/20 04:16:22;;;;;;;4.57;1.75;;;23.90;49.40;;;;;;7372903;19;20131;-75
2022/05/20 04:18:55;;;;;;;6.05;2.10;;;23.90;49.70;;;;;;7374687;19;20072;-75
2022/05/20 04:21:26;;;;;;;7.15;1.85;;;23.90;49.70;;;;;;7372325;19;20169;-74
2022/05/20 04:23:54;;;;;;;;;;;23.90;49.60;;;;;;7396744;19;20745;-74
2022/05/20 04:26:23;;;;;;;5.50;2.20;;;24.00;49.60;;;;;;7372459;19;19981;-74
2022/05/20 04:28:52;;;;;;;6.10;2.58;;;24.00;49.70;;;;;;7371714;19;20074;-75
2022/05/20 04:31:20;;;;;;;3.42;1.65;;;24.00;49.80;;;;;;7371482;19;20030;-74
2022/05/20 04:33:49;;;;;;;8.57;1.90;;;23.90;49.70;;;;;;7374124;19;20027;-75
2022/05/20 04:36:18;;;;;;;3.58;1.85;;;24.00;49.90;;;;;;7373785;19;20030;-75
2022/05/20 04:38:49;;;;;;;7.53;1.90;;;24.00;50.00;;;;;;7394870;19;20047;-75
2022/05/20 04:49:23;;;;;;;4.10;2.05;;;24.20;50.20;;;;;;7370361;19;20035;-74
2022/05/20 04:51:52;;;;;;;7.22;2.53;;;24.20;50.20;;;;;;7372348;19;20031;-75
2022/05/20 04:57:05;;;;;;;8.07;2.08;;;24.30;50.30;;;;;;7372436;19;20057;-75
2022/05/20 04:59:36;;;;;;;4.95;2.00;;;24.30;50.50;;;;;;7393011;19;20118;-74
2022/05/20 05:02:08;;;;;;;8.20;2.20;;;24.30;50.70;;;;;;7371882;19;20019;-75
2022/05/20 05:04:37;;;;;;;5.05;2.00;;;24.30;50.40;;;;;;7371302;19;20022;-74
2022/05/20 05:07:09;;;;;;;4.20;1.85;;;24.40;50.40;;;;;;7368146;19;20018;-75
2022/05/20 05:09:41;;;;;;;7.53;2.28;;;24.30;50.50;;;;;;7373758;19;20015;-75
2022/05/20 05:12:12;;;;;;;5.60;2.40;;;24.30;50.30;;;;;;7371915;19;20025;-75
2022/05/20 05:14:42;;;;;;;3.80;2.08;;;24.30;50.40;;;;;;7394433;19;20041;-75
2022/05/20 05:17:13;;;;;;;5.35;1.98;;;24.30;50.50;;;;;;7371470;19;20018;-75
2022/05/20 05:19:44;;;;;;;4.93;1.80;;;24.30;50.40;;;;;;7370551;19;20074;-75
2022/05/20 05:22:20;;;;;;;5.50;2.08;;;24.30;50.20;;;;;;7370358;19;20015;-75
2022/05/20 05:24:52;;;;;;;9.40;2.10;;;24.30;49.90;;;;;;7370864;19;20023;-75
2022/05/20 05:27:20;;;;;;;;;;;24.20;50.20;;;;;;7370888;19;20177;-75
2022/05/20 05:29:49;;;;;;;7.57;2.10;;;24.30;50.10;;;;;;7392398;19;19990;-74
2022/05/20 05:32:17;;;;;;;10.93;2.80;;;24.30;50.40;;;;;;7368259;19;20090;-74
2022/05/20 05:34:46;;;;;;;11.07;2.55;;;24.30;50.80;;;;;;7371836;19;20011;-75
2022/05/20 05:37:15;;;;;;;7.38;2.40;;;24.30;51.00;;;;;;7370000;19;20025;-74
2022/05/20 05:39:44;;;;;;;8.75;2.58;;;24.30;51.20;;;;;;7372006;19;20015;-75
2022/05/20 05:42:15;;;;;;;5.47;2.15;;;24.30;52.40;;;;;;7372179;19;20016;-75
2022/05/20 05:44:44;;;;;;;7.43;2.05;;;24.20;53.90;;;;;;7390432;19;20029;-75
2022/05/20 05:47:13;;;;;;;6.40;2.70;;;24.20;54.00;;;;;;7370899;19;20102;-75
2022/05/20 05:49:43;;;;;;;8.93;2.50;;;24.10;54.30;;;;;;7368875;19;20089;-75
2022/05/20 05:52:12;;;;;;;7.03;2.50;;;24.00;55.10;;;;;;7370896;19;20021;-74
2022/05/20 05:54:41;;;;;;;5.90;2.45;;;24.00;55.30;;;;;;7369396;19;20077;-74
2022/05/20 05:57:09;;;;;;;12.48;2.70;;;23.90;56.30;;;;;;7369234;19;20037;-75
2022/05/20 05:59:41;;;;;;;9.35;3.08;;;23.90;56.70;;;;;;7389574;19;20505;-75
2022/05/20 06:02:10;;;;;;;7.45;2.30;;;23.80;56.80;;;;;;7369264;19;20044;-74
2022/05/20 06:04:39;;;;;;;10.65;3.47;;;23.70;58.40;;;;;;7370427;19;20268;-75
2022/05/20 06:07:08;;;;;;;15.35;3.13;;;23.60;58.90;;;;;;7370309;19;20021;-74
2022/05/20 06:09:37;;;;;;;18.75;6.22;;;23.60;59.60;;;;;;7368548;19;20020;-74
2022/05/20 06:12:07;;;;;;;17.77;6.30;;;23.60;60.30;;;;;;7369332;19;20503;-75
2022/05/20 06:14:36;;;;;;;8.25;2.95;;;23.50;61.50;;;;;;7392519;19;20085;-74
2022/05/20 06:17:07;;;;;;;9.02;2.70;;;23.50;62.00;;;;;;7367876;19;20400;-74
2022/05/20 06:19:36;;;;;;;;;;;23.50;61.90;;;;;;7371160;19;20018;-74
2022/05/20 06:22:05;;;;;;;12.05;3.08;;;23.50;61.10;;;;;;7370446;19;19919;-74
2022/05/20 06:24:33;;;;;;;10.00;3.15;;;23.50;62.10;;;;;;7369105;19;20030;-74
2022/05/20 06:27:03;;;;;;;8.90;3.10;;;23.40;62.50;;;;;;7389367;19;20102;-74
2022/05/20 06:29:31;;;;;;;5.82;2.85;;;23.40;62.00;;;;;;7368968;19;20018;-74
2022/05/20 06:32:00;;;;;;;10.45;3.53;;;23.40;61.60;;;;;;7368954;19;20022;-74
2022/05/20 06:39:48;;;;;;;11.00;3.92;;;23.40;61.20;;;;;;7370402;19;20035;-74
2022/05/20 06:40:12;;;;;;;14.98;3.63;;;23.40;62.30;;;;;;7367883;19;20045;-74
2022/05/20 06:42:42;;;;;;;13.18;3.78;;;23.40;60.80;;;;;;7369857;19;20019;-74
2022/05/20 06:45:13;;;;;;;14.53;3.83;;;23.40;61.20;;;;;;7368750;19;20025;-75
2022/05/20 06:47:42;;;;;;;15.88;4.13;;;23.50;62.10;;;;;;7388714;19;20022;-74
2022/05/20 06:50:15;;;;;;;10.50;3.35;;;23.50;62.60;;;;;;7368532;19;20010;-74
2022/05/20 06:52:44;;;;;;;9.73;3.58;;;23.60;62.40;;;;;;7370462;19;20386;-74
2022/05/20 06:55:13;;;;;;;10.32;3.67;;;23.60;61.80;;;;;;7369375;19;20096;-74
2022/05/20 06:57:42;;;;;;;10.95;3.78;;;23.60;62.20;;;;;;7370050;19;20018;-75
2022/05/20 07:00:14;;;;;;;13.77;4.13;;;23.70;61.80;;;;;;7365757;19;20019;-74
2022/05/20 07:02:44;;;;;;;13.02;3.75;;;23.80;61.40;;;;;;7390861;19;20082;-74
2022/05/20 07:05:15;;;;;;;10.45;3.83;;;23.80;60.50;;;;;;7369473;19;20018;-74
2022/05/20 07:07:43;;;;;;;;;;;23.80;60.30;;;;;;7369882;19;20014;-74
2022/05/20 07:10:13;;;;;;;15.95;4.82;;;23.90;60.50;;;;;;7368519;19;19988;-74
2022/05/20 07:12:42;;;;;;;13.25;4.95;;;23.90;59.90;;;;;;7367975;19;20542;-75
2022/05/20 07:15:12;;;;;;;12.35;4.78;;;23.90;60.20;;;;;;7368787;19;20105;-74
2022/05/20 07:17:41;;;;;;;17.98;4.60;;;23.90;60.20;;;;;;7389849;19;20094;-75
2022/05/20 07:20:12;;;;;;;14.90;4.45;;;24.00;60.90;;;;;;7366253;19;20015;-76
2022/05/20 07:22:43;;;;;;;32.03;4.93;;;24.00;59.90;;;;;;7368427;19;20029;-80
2022/05/20 07:25:12;;;;;;;11.20;4.60;;;24.00;59.70;;;;;;7369085;19;20335;-74
2022/05/20 07:27:41;;;;;;;43.92;26.75;;;24.10;60.20;;;;;;7368808;19;20067;-76
2022/05/20 07:30:11;;;;;;;50.92;31.42;;;24.10;59.90;;;;;;7373453;19;20018;-78
2022/05/20 07:32:40;;;;;;;21.58;10.02;;;24.20;59.70;;;;;;7394508;19;20025;-78
2022/05/20 07:35:10;;;;;;;11.48;5.68;;;24.30;60.40;;;;;;7378619;19;20316;-78
2022/05/20 07:37:44;;;;;;;17.30;6.22;;;24.30;59.40;;;;;;7376136;19;20570;-79
2022/05/20 07:40:13;;;;;;;11.43;5.57;;;24.30;59.60;;;;;;7376987;19;20094;-78
2022/05/20 07:42:42;;;;;;;11.00;5.28;;;24.30;59.10;;;;;;7378593;19;20043;-78
2022/05/20 07:45:12;;;;;;;35.20;8.20;;;24.30;58.50;;;;;;7337954;19;20015;-81
2022/05/20 07:47:41;;;;;;;16.27;5.80;;;24.20;60.60;;;;;;7400536;19;20114;-80
2022/05/20 07:50:11;;;;;;;13.90;6.88;;;24.10;61.50;;;;;;7377501;19;20014;-81
2022/05/20 07:55:31;;;;;;;13.98;5.97;;;23.90;62.40;;;;;;7379226;19;20017;-86
2022/05/20 07:58:03;;;;;;;;;;;23.90;64.00;;;;;;7386514;19;20006;-87
2022/05/20 08:00:33;;;;;;;15.57;5.82;;;23.80;62.20;;;;;;7390637;19;19911;-88
2022/05/20 08:03:03;;;;;;;11.95;5.95;;;23.70;62.50;;;;;;7411545;19;20468;-87
2022/05/20 08:05:30;;;;;;;15.75;6.40;;;23.70;63.60;;;;;;7378707;19;20019;-89
2022/05/20 08:08:05;;;;;;;16.45;6.20;;;23.70;64.70;;;;;;7379173;19;20006;-88
2022/05/20 08:10:38;;;;;;;16.20;6.55;;;23.70;65.00;;;;;;7378000;19;20018;-88
2022/05/20 08:13:08;;;;;;;12.63;5.88;;;23.80;64.90;;;;;;7376366;19;20427;-87
2022/05/20 08:15:36;;;;;;;16.00;6.90;;;23.80;63.30;;;;;;7378593;19;20018;-88
2022/05/20 08:18:06;;;;;;;19.67;6.90;;;23.80;63.80;;;;;;7377423;19;20395;-85
2022/05/20 08:20:34;;;;;;;16.65;7.13;;;23.90;64.40;;;;;;7402053;19;20022;-87
2022/05/20 08:23:05;;;;;;;13.60;5.95;;;23.90;64.60;;;;;;7377824;19;20085;-89
2022/05/20 08:25:36;;;;;;;;;;;23.90;65.10;;;;;;7379369;19;20882;-89
2022/05/20 08:28:05;;;;;;;20.88;7.50;;;24.00;63.30;;;;;;7378903;19;20241;-89
2022/05/20 08:30:34;;;;;;;13.15;6.85;;;23.90;64.00;;;;;;7393113;19;20085;-83
2022/05/20 08:33:03;;;;;;;20.73;8.13;;;23.90;64.40;;;;;;7421404;19;19998;-78
2022/05/20 08:35:32;;;;;;;18.80;10.05;;;23.90;64.10;;;;;;7428465;19;20018;-81
2022/05/20 08:38:04;;;;;;;34.35;17.08;;;23.80;63.80;;;;;;7385388;19;20079;-81
2022/05/20 08:40:40;;;;;;;21.13;8.63;;;23.70;63.80;;;;;;7381338;19;20122;-81
2022/05/20 08:43:09;;;;;;;23.98;9.07;;;23.70;64.20;;;;;;7382616;19;20907;-81
2022/05/20 08:45:37;;;;;;;18.90;8.63;;;23.50;64.00;;;;;;7379805;19;20010;-80
2022/05/20 08:48:09;;;;;;;17.75;8.00;;;23.20;64.30;;;;;;7377746;19;20376;-81
2022/05/20 08:50:42;;;;;;;13.43;7.10;;;23.20;65.50;;;;;;7398304;19;20062;-81
2022/05/20 08:53:17;;;;;;;17.50;7.47;;;23.30;66.70;;;;;;7377627;19;20097;-81
2022/05/20 08:55:49;;;;;;;16.60;6.63;;;23.40;66.60;;;;;;7376973;19;20052;-81
2022/05/20 08:58:22;;;;;;;20.35;6.55;;;23.60;67.20;;;;;;7373918;19;20786;-81
2022/05/20 09:00:51;;;;;;;18.67;7.05;;;23.70;65.90;;;;;;7375094;19;20464;-81
2022/05/20 09:03:22;;;;;;;14.98;7.43;;;23.70;64.90;;;;;;7375310;19;20118;-86
2022/05/20 09:05:51;;;;;;;21.92;7.65;;;23.80;65.30;;;;;;7396382;19;20098;-81
2022/05/20 09:08:26;;;;;;;15.65;7.82;;;23.80;64.90;;;;;;7375775;19;20435;-84
2022/05/20 09:10:59;;;;;;;14.57;6.47;;;23.80;64.90;;;;;;7372487;19;20010;-83
2022/05/20 09:16:10;;;;;;;63.33;39.67;;;24.10;65.20;;;;;;7373787;19;20044;-83
2022/05/20 09:18:42;;;;;;;21.50;10.23;;;24.40;65.80;;;;;;7375736;19;20088;-81
2022/05/20 09:21:25;;;;;;;18.05;9.20;;;24.60;65.30;;;;;;7375838;19;20129;-81
2022/05/20 09:23:57;;;;;;;16.35;8.20;;;24.70;64.50;;;;;;7396410;19;20505;-83
2022/05/20 09:26:36;;;;;;;13.27;6.70;;;24.90;63.20;;;;;;7376377;19;20053;-83
2022/05/20 09:29:10;;;;;;;11.75;6.72;;;24.90;63.30;;;;;;7374022;19;20353;-82
2022/05/20 09:31:48;;;;;;;12.52;6.80;;;25.00;62.90;;;;;;7372458;19;20086;-83
2022/05/20 09:34:21;;;;;;;13.88;7.28;;;25.00;62.70;;;;;;7372642;19;20018;-83
2022/05/20 09:36:57;;;;;;;15.27;7.55;;;24.90;63.30;;;;;;7375859;19;20127;-82
2022/05/20 09:39:30;;;;;;;11.95;7.28;;;24.70;64.10;;;;;;7375714;19;20011;-86
2022/05/20 09:42:07;;;;;;;14.02;6.90;;;24.40;64.20;;;;;;7397122;19;20010;-81
2022/05/20 09:44:41;;;;;;;10.68;6.22;;;24.30;65.00;;;;;;7376015;19;20011;-83
2022/05/20 09:47:19;;;;;;;12.20;5.90;;;24.40;66.30;;;;;;7370651;19;20720;-82
2022/05/20 09:49:54;;;;;;;14.80;6.55;;;24.60;66.70;;;;;;7375773;19;20098;-84
2022/05/20 09:52:39;;;;;;;11.38;6.35;;;24.80;66.70;;;;;;7377827;19;20019;-86
2022/05/20 09:55:14;;;;;;;19.13;6.95;;;25.00;65.00;;;;;;7375172;19;20073;-86
2022/05/20 09:57:48;;;;;;;10.43;6.55;;;25.30;64.70;;;;;;7372497;19;20139;-86
2022/05/20 10:00:23;;;;;;;13.68;6.10;;;25.50;64.60;;;;;;7375707;19;20014;-85
2022/05/20 10:02:59;;;;;;;55.60;38.28;;;25.70;64.30;;;;;;7392715;19;20102;-83
2022/05/20 10:05:33;;;;;;;20.73;10.65;;;25.90;64.40;;;;;;7371299;19;20020;-83
2022/05/20 10:08:14;;;;;;;15.38;8.10;;;25.90;62.90;;;;;;7371719;19;20082;-84
2022/05/20 10:11:11;;;;;;;14.47;8.17;;;26.00;61.60;;;;;;7371695;19;20022;-83
2022/05/20 10:13:52;;;;;;;12.30;7.88;;;25.90;61.20;;;;;;7373028;19;20149;-83
2022/05/20 10:16:31;;;;;;;12.60;7.82;;;25.80;61.90;;;;;;7371939;19;20018;-84
2022/05/20 10:19:11;;;;;;;10.55;7.13;;;25.70;62.10;;;;;;7371768;19;20035;-88
2022/05/20 10:21:52;;;;;;;12.57;6.88;;;25.80;62.90;;;;;;7381627;19;20006;-86
2022/05/20 10:24:38;;;;;;;15.15;7.25;;;25.80;62.30;;;;;;7375306;19;20018;-87
2022/05/20 10:27:14;;;;;;;13.02;6.95;;;25.90;61.40;;;;;;7371407;19;20018;-86
2022/05/20 10:32:49;;;;;;;18.13;7.65;;;26.10;60.50;;;;;;7372071;19;20022;-85
2022/05/20 10:35:20;;;;;;;12.82;7.00;;;26.20;59.80;;;;;;7371163;19;20026;-86
2022/05/20 10:38:21;;;;;;;9.98;6.65;;;26.20;60.20;;;;;;7372476;19;20110;-86
2022/05/20 10:41:00;;;;;;;14.90;7.00;;;26.30;61.60;;;;;;7371971;19;20037;-86
2022/05/20 10:48:34;;;;;;;11.73;7.47;;;26.40;60.70;;;;;;7374082;19;20010;-86
2022/05/20 10:49:26;;;;;;;14.45;7.25;;;26.50;60.60;;;;;;7378293;19;20014;-85
2022/05/20 10:52:07;;;;;;;14.32;7.43;;;26.60;61.40;;;;;;7381349;19;20014;-86
2022/05/20 10:54:57;;;;;;;10.70;7.32;;;26.70;61.10;;;;;;7380600;19;20010;-86
2022/05/20 10:57:53;;;;;;;15.55;7.28;;;26.70;60.90;;;;;;7373654;19;20498;-86
2022/05/20 11:00:23;;;;;;;16.25;7.80;;;26.70;61.90;;;;;;7372794;19;20398;-86
2022/05/20 11:03:25;;;;;;;13.45;8.07;;;26.70;62.20;;;;;;7394857;19;20023;-85
2022/05/20 11:06:36;;;;;;;15.30;8.35;;;26.70;62.50;;;;;;7378995;19;20431;-82
2022/05/20 11:09:08;;;;;;;15.18;7.20;;;26.60;63.10;;;;;;7271949;19;2004869;-82
2022/05/20 11:12:01;;;;;;;14.48;6.80;;;26.80;62.80;;;;;;7399226;19;20090;-80
2022/05/20 11:15:06;;;;;;;11.63;7.22;;;26.80;62.50;;;;;;7375366;19;20017;-80
2022/05/20 11:17:59;;;;;;;14.68;7.63;;;26.90;61.70;;;;;;7373811;19;20052;-80
2022/05/20 11:20:47;;;;;;;11.57;7.97;;;26.90;61.00;;;;;;7375780;19;20018;-78
2022/05/20 11:23:51;;;;;;;12.98;7.30;;;26.70;61.70;;;;;;7373053;19;20014;-79
2022/05/20 11:26:43;;;;;;;12.70;7.40;;;26.60;62.40;;;;;;7373943;19;20029;-81
2022/05/20 11:29:35;;;;;;;12.75;7.03;;;26.40;62.70;;;;;;7374751;19;20019;-80
2022/05/20 11:32:07;;;;;;;13.57;7.32;;;26.30;63.40;;;;;;7373226;19;20035;-83
2022/05/20 11:35:04;;;;;;;16.02;7.80;;;26.30;62.90;;;;;;7373369;19;20018;-82
2022/05/20 11:38:04;;;;;;;11.77;6.00;;;26.30;63.30;;;;;;7375586;19;20040;-81
2022/05/20 11:40:43;;;;;;;12.02;6.30;;;26.30;62.20;;;;;;7373961;19;20074;-80
2022/05/20 11:43:36;;;;;;;14.02;5.57;;;26.30;61.20;;;;;;7376265;19;20025;-81
2022/05/20 11:46:18;;;;;;;10.30;5.50;;;26.20;61.20;;;;;;7377319;19;20039;-80
2022/05/20 11:49:09;;;;;;;9.27;5.25;;;26.10;60.60;;;;;;7377295;19;20024;-80
2022/05/20 11:52:16;;;;;;;11.63;5.25;;;26.30;61.10;;;;;;7378223;19;20022;-80
2022/05/20 11:54:54;;;;;;;12.68;5.00;;;26.50;59.30;;;;;;7372162;19;20422;-80
2022/05/20 11:57:27;;;;;;;9.45;4.43;;;26.70;58.80;;;;;;7372267;19;20025;-82
2022/05/20 12:00:02;;;;;;;44.75;29.55;;;26.90;59.20;;;;;;7397124;19;20058;-82
2022/05/20 12:02:34;;;;;;;13.05;5.50;;;27.10;58.40;;;;;;7375462;19;20043;-83
2022/05/20 12:05:04;;;;;;;15.90;5.22;;;27.20;56.50;;;;;;7377199;19;20021;-79
2022/05/20 12:07:39;;;;;;;12.18;4.60;;;27.30;55.90;;;;;;7375579;19;20418;-81
2022/05/20 12:10:37;;;;;;;15.48;4.75;;;27.40;55.80;;;;;;7371367;19;20030;-80
2022/05/20 12:13:16;;;;;;;8.95;4.65;;;27.20;54.30;;;;;;7366925;19;20021;-81
2022/05/20 12:15:51;;;;;;;14.40;4.57;;;27.30;55.00;;;;;;7372203;19;20025;-81
2022/05/20 12:24:31;;;;;;;11.10;5.22;;;27.30;54.30;;;;;;7378335;19;20032;-90
2022/05/20 12:27:03;;;;;;;14.50;4.97;;;27.10;54.00;;;;;;7398917;19;20062;-81
2022/05/20 12:30:08;;;;;;;9.55;4.88;;;27.00;54.10;;;;;;7380441;19;20528;-82
2022/05/20 12:32:57;;;;;;;11.70;4.95;;;26.80;54.90;;;;;;7396179;19;20013;-92
2022/05/20 12:35:33;;;;;;;13.32;4.53;;;26.90;55.60;;;;;;7387696;19;20039;-90
2022/05/20 12:38:27;;;;;;;17.88;4.85;;;26.90;54.80;;;;;;7388413;19;20027;-90
2022/05/20 12:41:03;;;;;;;119.10;86.63;;;26.70;55.90;;;;;;7382650;19;22645;-90
2022/05/20 12:43:51;;;;;;;12.52;5.22;;;26.80;56.30;;;;;;7385216;19;20027;-86
2022/05/20 12:46:37;;;;;;;11.10;4.20;;;26.60;56.30;;;;;;7397725;19;20015;-92
2022/05/20 12:49:06;;;;;;;8.13;4.80;;;26.60;56.10;;;;;;7402151;19;20022;-92
2022/05/20 12:51:44;;;;;;;14.73;5.25;;;26.50;56.10;;;;;;7400685;19;20035;-92
2022/05/20 12:54:22;;;;;;;14.02;5.25;;;26.50;56.60;;;;;;7403925;19;20022;-84
2022/05/20 12:56:56;;;;;;;11.48;5.00;;;26.40;56.90;;;;;;7413466;19;20007;-82
2022/05/20 12:59:30;;;;;;;11.23;4.95;;;26.30;57.00;;;;;;7379626;19;20039;-81
2022/05/20 13:02:07;;;;;;;14.55;4.72;;;26.30;57.50;;;;;;7381671;19;20011;-82
2022/05/20 13:04:41;;;;;;;17.20;5.10;;;26.30;57.90;;;;;;7378818;19;20035;-81
2022/05/20 13:07:17;;;;;;;9.68;5.13;;;26.20;58.30;;;;;;7375914;19;20014;-82
2022/05/20 13:09:48;;;;;;;13.32;4.90;;;26.00;58.40;;;;;;7380539;19;20058;-82
2022/05/20 13:12:22;;;;;;;10.98;5.40;;;25.80;59.30;;;;;;7376970;19;20018;-82
2022/05/20 13:15:01;;;;;;;11.73;4.70;;;25.40;60.60;;;;;;7397441;19;20014;-81
2022/05/20 13:17:33;;;;;;;10.52;5.20;;;25.40;61.30;;;;;;7379945;19;20018;-82
2022/05/20 13:20:04;;;;;;;7.63;5.05;;;25.20;62.20;;;;;;7378145;19;20023;-82
2022/05/20 13:22:33;;;;;;;7.53;4.82;;;25.10;62.50;;;;;;7377068;19;20018;-82
2022/05/20 13:25:06;;;;;;;10.45;4.05;;;25.20;62.00;;;;;;7378170;19;20018;-81
2022/05/20 13:27:34;;;;;;;7.55;3.40;;;24.90;61.70;;;;;;7375458;19;20015;-81
2022/05/20 13:30:19;;;;;;;8.25;3.60;;;24.80;61.60;;;;;;7392946;19;20014;-80
2022/05/20 13:32:48;;;;;;;6.50;3.10;;;24.70;61.70;;;;;;7396340;19;20022;-81
2022/05/20 13:35:17;;;;;;;7.60;3.00;;;24.60;61.80;;;;;;7379487;19;20861;-88
2022/05/20 13:37:51;;;;;;;10.52;3.30;;;24.40;62.70;;;;;;7407147;19;20015;-87
2022/05/20 13:42:56;;;;;;;6.83;2.77;;;24.70;61.20;;;;;;7386790;19;20011;-83
2022/05/20 13:51:01;;;;;;;9.27;2.80;;;24.70;61.00;;;;;;7410926;19;20042;-89
2022/05/20 13:53:31;;;;;;;4.80;2.70;;;24.80;60.20;;;;;;7387485;19;20029;-89
2022/05/20 13:56:01;;;;;;;4.15;2.65;;;25.00;61.10;;;;;;7392107;19;20323;-89
2022/05/20 13:58:31;;;;;;;7.70;2.97;;;24.90;60.20;;;;;;7386637;19;20013;-88
2022/05/20 14:01:06;;;;;;;4.10;2.90;;;24.70;59.80;;;;;;7383187;19;20023;-88
2022/05/20 14:03:37;;;;;;;6.38;3.38;;;24.40;60.00;;;;;;7382662;19;20263;-88
2022/05/20 14:06:12;;;;;;;9.50;3.07;;;24.00;60.30;;;;;;7383762;19;20673;-87